createdAt,value
2018-06-03T00:00:25.001Z,90.09
2018-06-03T00:02:54.003Z,90.13
2018-06-03T00:05:23.210Z,90.56
2018-06-03T00:07:52.363Z,90.90
2018-06-03T00:10:22.312Z,91.79
2018-06-03T00:12:51.317Z,91.65
2018-06-03T00:15:20.420Z,90.77
2018-06-03T00:17:50.048Z,90.87
2018-06-03T00:20:28.793Z,92.17
2018-06-03T00:22:59.135Z,92.63
2018-06-03T00:25:28.064Z,92.14
2018-06-03T00:27:58.984Z,91.45
2018-06-03T00:30:28.606Z,92.11
2018-06-03T00:32:58.739Z,91.85
2018-06-03T00:35:27.775Z,91.68
2018-06-03T00:37:56.824Z,91.81
2018-06-03T00:40:25.956Z,91.77
2018-06-03T00:42:56.029Z,92.42
2018-06-03T00:45:25.019Z,92.81
2018-06-03T00:47:54.055Z,91.98
2018-06-03T00:50:22.997Z,92.13
2018-06-03T00:52:53.199Z,92.16
2018-06-03T00:55:22.147Z,91.95
2018-06-03T00:57:51.162Z,92.42
2018-06-03T01:00:20.901Z,91.66
2018-06-03T01:02:49.996Z,91.54
2018-06-03T01:05:18.958Z,91.75
2018-06-03T01:07:49.133Z,91.35
2018-06-03T01:10:18.204Z,91.25
2018-06-03T01:12:47.260Z,91.68
2018-06-03T01:15:16.368Z,92.46
2018-06-03T01:17:45.396Z,92.20
2018-06-03T01:20:14.465Z,92.54
2018-06-03T01:22:43.442Z,92.53
2018-06-03T01:25:13.428Z,92.42
2018-06-03T01:27:42.455Z,92.95
2018-06-03T01:30:13.194Z,92.61
2018-06-03T01:32:42.275Z,92.82
2018-06-03T01:35:11.254Z,91.80
2018-06-03T01:37:40.267Z,92.40
2018-06-03T01:40:09.340Z,93.51
2018-06-03T01:42:38.946Z,92.99
2018-06-03T01:45:08.958Z,92.67
2018-06-03T01:47:37.953Z,92.26
2018-06-03T01:50:07.698Z,93.31
2018-06-03T01:52:36.676Z,92.66
2018-06-03T01:55:05.728Z,93.18
2018-06-03T01:57:34.904Z,93.07
2018-06-03T02:00:03.948Z,93.38
2018-06-03T02:02:32.920Z,93.84
2018-06-03T02:05:02.289Z,93.49
2018-06-03T02:07:31.349Z,93.16
2018-06-03T02:10:00.431Z,94.08
2018-06-03T02:12:29.472Z,95.02
2018-06-03T02:14:58.490Z,94.83
2018-06-03T02:17:27.496Z,94.43
2018-06-03T02:19:58.390Z,93.92
2018-06-03T02:22:30.317Z,93.56
2018-06-03T02:24:59.328Z,93.26
2018-06-03T02:27:28.476Z,92.96
2018-06-03T02:29:58.339Z,92.64
2018-06-03T02:32:27.565Z,92.26
2018-06-03T02:34:56.557Z,92.46
2018-06-03T02:37:27.094Z,92.78
2018-06-03T02:39:56.140Z,93.27
2018-06-03T02:42:25.201Z,93.23
2018-06-03T02:44:54.701Z,93.30
2018-06-03T02:47:23.681Z,92.61
2018-06-03T02:49:52.727Z,93.21
2018-06-03T02:52:21.829Z,92.61
2018-06-03T02:54:51.247Z,93.28
2018-06-03T02:57:20.278Z,93.32
2018-06-03T02:59:49.298Z,93.16
2018-06-03T03:02:18.301Z,93.27
2018-06-03T03:04:47.296Z,92.70
2018-06-03T03:07:16.760Z,93.29
2018-06-03T03:09:45.752Z,92.86
2018-06-03T03:12:14.806Z,93.32
2018-06-03T03:14:44.058Z,94.42
2018-06-03T03:17:13.064Z,95.70
2018-06-03T03:19:42.087Z,95.94
2018-06-03T03:22:12.728Z,95.80
2018-06-03T03:24:41.686Z,95.61
2018-06-03T03:27:10.728Z,94.70
2018-06-03T03:29:41.089Z,95.11
2018-06-03T03:32:10.166Z,96.41
2018-06-03T03:34:39.934Z,95.77
2018-06-03T03:37:08.940Z,95.84
2018-06-03T03:39:37.896Z,94.87
2018-06-03T03:42:06.958Z,95.27
2018-06-03T03:44:35.996Z,94.52
2018-06-03T03:47:05.721Z,94.12
2018-06-03T03:49:34.667Z,93.32
2018-06-03T03:52:03.677Z,94.20
2018-06-03T03:54:32.865Z,94.22
2018-06-03T03:57:04.613Z,94.39
2018-06-03T03:59:33.665Z,94.31
2018-06-03T04:02:02.680Z,93.35
2018-06-03T04:04:31.751Z,93.01
2018-06-03T04:07:01.872Z,93.00
2018-06-03T04:09:31.091Z,93.96
2018-06-03T04:12:00.790Z,94.11
2018-06-03T04:14:29.886Z,94.10
2018-06-03T04:16:59.780Z,93.30
2018-06-03T04:19:28.822Z,94.45
2018-06-03T04:21:58.898Z,94.92
2018-06-03T04:24:27.880Z,95.07
2018-06-03T04:26:58.006Z,95.06
2018-06-03T04:29:27.321Z,94.96
2018-06-03T04:31:56.519Z,94.72
2018-06-03T04:34:25.553Z,95.23
2018-06-03T04:36:54.624Z,95.14
2018-06-03T04:39:23.724Z,94.08
2018-06-03T04:41:54.917Z,94.10
2018-06-03T04:44:24.939Z,94.00
2018-06-03T04:46:53.928Z,94.93
2018-06-03T04:49:22.994Z,94.21
2018-06-03T04:51:53.106Z,94.01
2018-06-03T04:54:22.377Z,92.60
2018-06-03T04:56:51.722Z,92.86
2018-06-03T04:59:20.775Z,93.02
2018-06-03T05:01:49.759Z,91.64
2018-06-03T05:04:18.842Z,91.62
2018-06-03T05:06:47.873Z,89.89
2018-06-03T05:09:16.932Z,88.67
2018-06-03T05:11:45.954Z,89.16
2018-06-03T05:14:15.562Z,88.83
2018-06-03T05:16:46.130Z,88.85
2018-06-03T05:19:17.334Z,87.00
2018-06-03T05:21:46.987Z,86.60
2018-06-03T05:24:15.927Z,86.92
2018-06-03T05:26:45.605Z,87.57
2018-06-03T05:29:14.636Z,88.74
2018-06-03T05:31:43.885Z,90.26
2018-06-03T05:34:13.239Z,88.97
2018-06-03T05:36:42.341Z,88.18
2018-06-03T05:39:11.495Z,86.22
2018-06-03T05:41:40.590Z,84.95
2018-06-03T05:44:10.591Z,85.51
2018-06-03T05:46:40.440Z,87.41
2018-06-03T05:49:09.642Z,87.23
2018-06-03T05:51:39.101Z,86.05
2018-06-03T05:54:08.248Z,86.85
2018-06-03T05:56:37.332Z,82.84
2018-06-03T05:59:07.077Z,84.35
2018-06-03T06:01:36.205Z,83.67
2018-06-03T06:04:05.333Z,81.45
2018-06-03T06:06:34.381Z,82.21
2018-06-03T06:09:05.022Z,83.07
2018-06-03T06:11:34.442Z,84.18
2018-06-03T06:14:05.388Z,83.53
2018-06-03T06:16:34.629Z,82.04
2018-06-03T06:19:03.961Z,82.11
2018-06-03T06:21:33.642Z,83.08
2018-06-03T06:24:03.761Z,83.07
2018-06-03T06:26:32.721Z,80.63
2018-06-03T06:29:04.971Z,77.86
2018-06-03T06:31:35.892Z,77.83
2018-06-03T06:34:05.217Z,78.29
2018-06-03T06:36:34.185Z,79.87
2018-06-03T06:39:03.337Z,79.33
2018-06-03T06:41:32.388Z,78.01
2018-06-03T06:44:04.003Z,73.64
2018-06-03T06:46:34.356Z,73.86
2018-06-03T06:49:04.293Z,74.03
2018-06-03T06:51:33.966Z,71.83
2018-06-03T06:54:03.225Z,70.23
2018-06-03T06:56:32.553Z,68.70
2018-06-03T06:59:01.686Z,73.93
2018-06-03T07:01:30.859Z,73.45
2018-06-03T07:04:01.607Z,70.39
2018-06-03T07:06:32.103Z,71.25
2018-06-03T07:09:04.848Z,73.43
2018-06-03T07:11:35.342Z,72.44
2018-06-03T07:14:04.777Z,73.40
2018-06-03T07:16:34.085Z,73.69
2018-06-03T07:19:03.508Z,71.90
2018-06-03T07:21:33.013Z,70.77
2018-06-03T07:24:02.360Z,70.09
2018-06-03T07:26:31.376Z,70.16
2018-06-03T07:29:00.494Z,71.19
2018-06-03T07:31:30.186Z,73.75
2018-06-03T07:33:59.210Z,74.01
2018-06-03T07:36:28.870Z,72.55
2018-06-03T07:38:58.654Z,73.44
2018-06-03T07:41:27.755Z,72.98
2018-06-03T07:43:57.852Z,73.44
2018-06-03T07:46:27.071Z,72.42
2018-06-03T07:49:00.197Z,72.80
2018-06-03T07:51:30.410Z,73.51
2018-06-03T07:54:00.806Z,70.07
2018-06-03T07:56:30.235Z,72.28
2018-06-03T07:58:59.497Z,71.54
2018-06-03T08:01:31.462Z,70.19
2018-06-03T08:04:01.527Z,70.54
2018-06-03T08:06:30.611Z,70.62
2018-06-03T08:09:01.855Z,69.17
2018-06-03T08:11:32.957Z,69.70
2018-06-03T08:14:02.004Z,69.18
2018-06-03T08:16:31.792Z,68.56
2018-06-03T08:19:01.652Z,69.54
2018-06-03T08:21:30.728Z,68.78
2018-06-03T08:24:00.020Z,69.95
2018-06-03T08:26:32.180Z,69.54
2018-06-03T08:29:02.328Z,70.19
2018-06-03T08:31:32.498Z,68.58
2018-06-03T08:34:01.620Z,67.74
2018-06-03T08:36:30.644Z,67.44
2018-06-03T08:38:59.746Z,65.96
2018-06-03T08:41:28.948Z,68.06
2018-06-03T08:43:58.938Z,66.46
2018-06-03T08:46:28.725Z,65.60
2018-06-03T08:48:59.113Z,65.34
2018-06-03T08:51:28.271Z,66.56
2018-06-03T08:53:58.290Z,64.24
2018-06-03T08:56:27.462Z,65.63
2018-06-03T08:58:56.721Z,63.39
2018-06-03T09:01:25.845Z,64.29
2018-06-03T09:03:56.239Z,65.42
2018-06-03T09:06:26.123Z,62.89
2018-06-03T09:08:55.232Z,64.14
2018-06-03T09:11:25.482Z,65.78
2018-06-03T09:13:55.116Z,67.59
2018-06-03T09:16:24.668Z,65.89
2018-06-03T09:18:53.885Z,62.12
2018-06-03T09:21:22.999Z,63.88
2018-06-03T09:23:53.207Z,61.14
2018-06-03T09:26:22.898Z,63.74
2018-06-03T09:28:51.905Z,63.27
2018-06-03T09:31:20.933Z,60.37
2018-06-03T09:33:50.024Z,64.40
2018-06-03T09:36:19.217Z,63.97
2018-06-03T09:38:48.251Z,61.58
2018-06-03T09:41:17.307Z,62.97
2018-06-03T09:43:47.187Z,56.71
2018-06-03T09:46:16.260Z,62.08
2018-06-03T09:48:45.354Z,62.10
2018-06-03T09:51:15.698Z,66.45
2018-06-03T09:53:45.829Z,57.98
2018-06-03T09:56:15.690Z,59.45
2018-06-03T09:58:44.790Z,58.69
2018-06-03T10:01:16.978Z,57.74
2018-06-03T10:03:47.123Z,57.70
2018-06-03T10:06:16.858Z,61.35
2018-06-03T10:08:48.045Z,55.52
2018-06-03T10:11:18.108Z,47.79
2018-06-03T10:13:47.184Z,50.63
2018-06-03T10:16:16.151Z,48.97
2018-06-03T10:18:45.214Z,50.75
2018-06-03T10:21:14.377Z,51.53
2018-06-03T10:23:44.228Z,49.95
2018-06-03T10:26:14.687Z,50.72
2018-06-03T10:28:43.714Z,50.17
2018-06-03T10:31:12.868Z,50.15
2018-06-03T10:33:41.858Z,49.73
2018-06-03T10:36:11.479Z,48.71
2018-06-03T10:38:41.199Z,47.20
2018-06-03T10:41:10.653Z,49.62
2018-06-03T10:43:39.797Z,49.22
2018-06-03T10:46:09.848Z,49.94
2018-06-03T10:48:39.036Z,51.33
2018-06-03T10:51:09.068Z,52.26
2018-06-03T10:53:38.077Z,52.44
2018-06-03T10:56:07.146Z,51.13
2018-06-03T10:58:36.856Z,56.12
2018-06-03T11:01:05.969Z,44.48
2018-06-03T11:03:36.486Z,47.92
2018-06-03T11:06:05.578Z,51.50
2018-06-03T11:08:35.791Z,50.70
2018-06-03T11:11:05.699Z,51.99
2018-06-03T11:13:34.763Z,46.76
2018-06-03T11:16:03.787Z,53.03
2018-06-03T11:18:32.779Z,47.45
2018-06-03T11:21:02.280Z,43.23
2018-06-03T11:23:31.464Z,48.98
2018-06-03T11:26:00.878Z,48.12
2018-06-03T11:28:30.355Z,46.56
2018-06-03T11:30:59.993Z,46.55
2018-06-03T11:33:29.784Z,50.74
2018-06-03T11:35:58.855Z,51.53
2018-06-03T11:38:27.908Z,55.76
2018-06-03T11:40:57.934Z,56.09
2018-06-03T11:43:27.005Z,58.34
2018-06-03T11:45:57.193Z,56.21
2018-06-03T11:48:27.250Z,58.00
2018-06-03T11:50:56.254Z,59.10
2018-06-03T11:53:26.038Z,58.99
2018-06-03T11:55:56.839Z,59.72
2018-06-03T11:59:00.629Z,58.00
2018-06-03T12:01:31.468Z,55.63
2018-06-03T12:04:00.539Z,53.18
2018-06-03T12:06:31.457Z,53.56
2018-06-03T12:09:00.560Z,43.32
2018-06-03T12:11:30.820Z,45.50
2018-06-03T12:13:59.892Z,41.77
2018-06-03T12:16:29.778Z,45.12
2018-06-03T12:19:00.957Z,48.60
2018-06-03T12:21:30.317Z,46.76
2018-06-03T12:23:59.415Z,42.18
2018-06-03T12:26:28.830Z,45.84
2018-06-03T12:28:57.838Z,45.71
2018-06-03T12:31:26.877Z,42.47
2018-06-03T12:33:55.886Z,42.06
2018-06-03T12:36:26.786Z,45.11
2018-06-03T12:38:55.900Z,45.14
2018-06-03T12:41:24.992Z,45.64
2018-06-03T12:43:54.075Z,45.05
2018-06-03T12:46:23.081Z,41.35
2018-06-03T12:48:53.235Z,41.55
2018-06-03T12:51:22.889Z,42.02
2018-06-03T12:53:52.572Z,40.47
2018-06-03T12:56:21.755Z,41.46
2018-06-03T12:58:50.852Z,39.72
2018-06-03T13:01:19.828Z,42.40
2018-06-03T13:03:49.036Z,42.44
2018-06-03T13:06:18.147Z,38.49
2018-06-03T13:08:49.207Z,39.15
2018-06-03T13:11:18.266Z,45.91
2018-06-03T13:13:47.704Z,49.64
2018-06-03T13:16:18.296Z,47.57
2018-06-03T13:18:47.815Z,50.64
2018-06-03T13:21:17.292Z,50.15
2018-06-03T13:23:47.952Z,51.37
2018-06-03T13:26:18.398Z,51.37
2018-06-03T13:28:48.452Z,52.29
2018-06-03T13:31:17.800Z,54.79
2018-06-03T13:33:47.054Z,52.37
2018-06-03T13:36:16.540Z,52.65
2018-06-03T13:38:46.155Z,51.72
2018-06-03T13:41:17.513Z,48.91
2018-06-03T13:43:46.830Z,49.03
2018-06-03T13:46:16.790Z,49.69
2018-06-03T13:48:46.589Z,46.89
2018-06-03T13:51:16.112Z,44.33
2018-06-03T13:53:46.127Z,43.17
2018-06-03T13:56:16.185Z,42.52
2018-06-03T13:58:46.720Z,41.31
2018-06-03T14:01:16.101Z,40.65
2018-06-03T14:03:45.145Z,40.99
2018-06-03T14:06:14.154Z,42.94
2018-06-03T14:08:43.310Z,43.05
2018-06-03T14:11:16.143Z,42.66
2018-06-03T14:13:45.103Z,44.81
2018-06-03T14:16:14.164Z,48.13
2018-06-03T14:18:43.395Z,40.93
2018-06-03T14:21:12.465Z,41.58
2018-06-03T14:23:41.523Z,41.11
2018-06-03T14:26:10.619Z,38.88
2018-06-03T14:28:40.988Z,44.24
2018-06-03T14:31:10.952Z,40.98
2018-06-03T14:33:40.669Z,40.05
2018-06-03T14:36:10.473Z,41.55
2018-06-03T14:38:39.771Z,41.16
2018-06-03T14:41:08.826Z,41.02
2018-06-03T14:43:37.922Z,38.07
2018-06-03T14:46:06.958Z,38.88
2018-06-03T14:48:35.954Z,39.37
2018-06-03T14:51:05.120Z,40.66
2018-06-03T14:53:34.274Z,40.92
2018-06-03T14:56:03.347Z,42.92
2018-06-03T14:58:32.353Z,42.17
2018-06-03T15:01:01.371Z,39.98
2018-06-03T15:03:30.424Z,40.46
2018-06-03T15:05:59.713Z,41.88
2018-06-03T15:08:30.035Z,41.24
2018-06-03T15:10:59.107Z,41.74
2018-06-03T15:13:28.134Z,42.78
2018-06-03T15:15:57.156Z,43.24
2018-06-03T15:18:26.946Z,41.97
2018-06-03T15:20:56.074Z,43.23
2018-06-03T15:23:25.753Z,44.23
2018-06-03T15:25:54.933Z,46.00
2018-06-03T15:28:24.047Z,47.52
2018-06-03T15:30:53.289Z,48.98
2018-06-03T15:33:22.287Z,51.57
2018-06-03T15:35:52.463Z,51.83
2018-06-03T15:38:21.632Z,53.49
2018-06-03T15:40:51.592Z,56.61
2018-06-03T15:43:22.318Z,56.93
2018-06-03T15:45:51.983Z,56.73
2018-06-03T15:48:21.689Z,57.17
2018-06-03T15:50:50.739Z,57.85
2018-06-03T15:53:19.788Z,57.58
2018-06-03T15:55:48.792Z,58.73
2018-06-03T15:58:17.911Z,58.77
2018-06-03T16:00:46.949Z,59.89
2018-06-03T16:03:16.059Z,59.83
2018-06-03T16:05:46.341Z,59.57
2018-06-03T16:08:16.338Z,59.48
2018-06-03T16:10:47.341Z,60.54
2018-06-03T16:13:16.425Z,59.34
2018-06-03T16:15:45.552Z,60.05
2018-06-03T16:18:15.651Z,58.96
2018-06-03T16:20:45.794Z,61.24
2018-06-03T16:23:15.274Z,60.88
2018-06-03T16:25:44.353Z,59.52
2018-06-03T16:28:14.451Z,60.98
2018-06-03T16:30:43.606Z,61.88
2018-06-03T16:33:12.974Z,62.81
2018-06-03T16:35:42.096Z,64.59
2018-06-03T16:38:11.431Z,63.91
2018-06-03T16:40:41.510Z,62.63
2018-06-03T16:43:10.570Z,60.82
2018-06-03T16:45:39.616Z,63.98
2018-06-03T16:48:09.651Z,62.79
2018-06-03T16:50:39.619Z,62.89
2018-06-03T16:53:08.768Z,63.73
2018-06-03T16:55:39.897Z,62.74
2018-06-03T16:58:09.718Z,63.63
2018-06-03T17:00:39.306Z,63.32
2018-06-03T17:03:09.361Z,62.97
2018-06-03T17:05:38.793Z,63.33
2018-06-03T17:08:09.656Z,63.54
2018-06-03T17:10:40.807Z,62.70
2018-06-03T17:13:09.801Z,61.73
2018-06-03T17:15:38.883Z,62.67
2018-06-03T17:18:07.994Z,64.39
2018-06-03T17:20:37.085Z,66.09
2018-06-03T17:23:06.866Z,64.80
2018-06-03T17:25:36.096Z,66.64
2018-06-03T17:28:06.807Z,66.32
2018-06-03T17:30:36.449Z,67.92
2018-06-03T17:33:05.893Z,67.32
2018-06-03T17:35:36.024Z,65.45
2018-06-03T17:38:05.141Z,65.60
2018-06-03T17:40:36.966Z,65.21
2018-06-03T17:43:08.096Z,64.87
2018-06-03T17:45:38.368Z,66.12
2018-06-03T17:48:10.583Z,67.23
2018-06-03T17:50:39.661Z,65.87
2018-06-03T17:53:08.719Z,65.43
2018-06-03T17:55:38.383Z,64.42
2018-06-03T17:58:07.501Z,65.95
2018-06-03T18:00:44.943Z,63.91
2018-06-03T18:03:14.077Z,64.54
2018-06-03T18:05:43.978Z,64.48
2018-06-03T18:08:13.967Z,66.35
2018-06-03T18:10:45.413Z,65.54
2018-06-03T18:13:15.134Z,65.34
2018-06-03T18:15:44.257Z,64.82
2018-06-03T18:18:13.362Z,65.06
2018-06-03T18:23:17.260Z,64.91
2018-06-03T18:25:46.482Z,65.29
2018-06-03T18:28:16.782Z,65.84
2018-06-03T18:30:46.632Z,65.86
2018-06-03T18:33:16.487Z,66.09
2018-06-03T18:35:45.600Z,65.80
2018-06-03T18:38:15.671Z,65.56
2018-06-03T18:40:44.941Z,65.69
2018-06-03T18:43:13.980Z,66.43
2018-06-03T18:45:43.173Z,66.39
2018-06-03T18:48:13.434Z,66.96
2018-06-03T18:50:43.256Z,67.39
2018-06-03T18:53:14.380Z,69.03
2018-06-03T18:55:43.822Z,67.38
2018-06-03T18:58:16.369Z,68.42
2018-06-03T19:00:46.649Z,68.72
2018-06-03T19:03:16.852Z,68.68
2018-06-03T19:05:46.453Z,68.87
2018-06-03T19:08:16.247Z,69.79
2018-06-03T19:10:45.444Z,70.47
2018-06-03T19:13:16.573Z,70.87
2018-06-03T19:15:45.786Z,69.41
2018-06-03T19:18:15.036Z,69.63
2018-06-03T19:20:45.142Z,69.75
2018-06-03T19:23:14.392Z,68.86
2018-06-03T19:25:44.723Z,70.65
2018-06-03T19:28:14.925Z,69.01
2018-06-03T19:30:46.237Z,70.51
2018-06-03T19:33:16.526Z,68.41
2018-06-03T19:35:46.782Z,70.32
2018-06-03T19:38:15.998Z,70.56
2018-06-03T19:40:45.261Z,71.57
2018-06-03T19:43:14.560Z,71.61
2018-06-03T19:45:44.651Z,72.25
2018-06-03T19:48:13.791Z,71.70
2018-06-03T19:50:43.073Z,71.73
2018-06-03T19:53:13.466Z,70.40
2018-06-03T19:55:42.717Z,69.91
2018-06-03T19:58:13.324Z,71.71
2018-06-03T20:00:44.771Z,72.25
2018-06-03T20:03:14.023Z,71.80
2018-06-03T20:05:44.356Z,71.38
2018-06-03T20:08:13.478Z,72.87
2018-06-03T20:10:42.897Z,73.27
2018-06-03T20:13:12.115Z,74.00
2018-06-03T20:15:41.324Z,75.33
2018-06-03T20:18:10.580Z,74.70
2018-06-03T20:20:42.584Z,74.63
2018-06-03T20:23:11.969Z,74.10
2018-06-03T20:25:41.203Z,72.82
2018-06-03T20:28:11.109Z,71.93
2018-06-03T20:30:41.315Z,72.60
2018-06-03T20:33:12.422Z,73.57
2018-06-03T20:35:41.716Z,73.94
2018-06-03T20:38:10.833Z,75.04
2018-06-03T20:40:41.049Z,74.29
2018-06-03T20:43:10.119Z,74.68
2018-06-03T20:45:39.559Z,76.26
2018-06-03T20:48:08.920Z,76.85
2018-06-03T20:50:38.425Z,77.39
2018-06-03T20:53:08.429Z,76.75
2018-06-03T20:55:38.265Z,78.20
2018-06-03T20:58:07.346Z,77.43
2018-06-03T21:00:36.388Z,77.74
2018-06-03T21:03:06.764Z,76.97
2018-06-03T21:05:35.818Z,77.59
2018-06-03T21:08:05.495Z,77.85
2018-06-03T21:10:34.567Z,78.35
2018-06-03T21:13:03.573Z,78.87
2018-06-03T21:15:32.809Z,79.16
2018-06-03T21:18:02.464Z,78.46
2018-06-03T21:20:32.158Z,78.57
2018-06-03T21:23:01.489Z,79.37
2018-06-03T21:25:30.608Z,78.75
2018-06-03T21:27:59.808Z,79.13
2018-06-03T21:30:29.778Z,78.55
2018-06-03T21:32:59.730Z,79.35
2018-06-03T21:35:28.858Z,78.93
2018-06-03T21:37:57.875Z,80.00
2018-06-03T21:40:28.691Z,79.84
2018-06-03T21:42:59.041Z,80.42
2018-06-03T21:45:28.128Z,80.38
2018-06-03T21:47:57.860Z,80.77
2018-06-03T21:50:26.895Z,79.84
2018-06-03T21:52:55.951Z,80.47
2018-06-03T21:55:24.972Z,79.49
2018-06-03T21:57:54.166Z,79.24
2018-06-03T22:00:26.736Z,78.05
2018-06-03T22:02:56.357Z,79.16
2018-06-03T22:05:26.164Z,79.87
2018-06-03T22:07:55.205Z,80.10
2018-06-03T22:10:24.275Z,80.88
2018-06-03T22:12:53.278Z,80.72
2018-06-03T22:15:23.061Z,81.62
2018-06-03T22:17:52.090Z,81.75
2018-06-03T22:20:21.319Z,81.04
2018-06-03T22:22:50.877Z,80.23
2018-06-03T22:25:21.431Z,79.76
2018-06-03T22:27:52.275Z,81.02
2018-06-03T22:30:22.938Z,80.65
2018-06-03T22:32:56.528Z,81.41
2018-06-03T22:35:26.137Z,82.37
2018-06-03T22:37:55.753Z,81.96
2018-06-03T22:40:24.818Z,81.36
2018-06-03T22:42:53.858Z,81.34
2018-06-03T22:45:22.851Z,82.16
2018-06-03T22:47:52.836Z,82.64
2018-06-03T22:50:21.987Z,83.10
2018-06-03T22:52:50.983Z,84.14
2018-06-03T22:55:20.041Z,82.88
2018-06-03T22:57:52.284Z,81.28
2018-06-03T23:00:25.569Z,82.40
2018-06-03T23:03:00.429Z,81.97
2018-06-03T23:05:29.477Z,82.13
2018-06-03T23:08:00.115Z,84.14
2018-06-03T23:10:30.036Z,84.84
2018-06-03T23:12:59.279Z,83.37
2018-06-03T23:15:29.569Z,82.50
2018-06-03T23:18:00.659Z,82.08
2018-06-03T23:20:29.635Z,83.16
2018-06-03T23:22:58.822Z,83.42
2018-06-03T23:25:27.952Z,84.26
2018-06-03T23:27:57.028Z,84.43
2018-06-03T23:30:26.012Z,84.05
2018-06-03T23:32:55.178Z,83.75
2018-06-03T23:35:24.100Z,84.09
2018-06-03T23:37:53.125Z,84.59
2018-06-03T23:40:23.023Z,85.07
2018-06-03T23:42:52.031Z,84.38
2018-06-03T23:45:21.095Z,83.66
2018-06-03T23:47:50.110Z,83.73
2018-06-03T23:50:19.182Z,83.58
2018-06-03T23:52:48.438Z,84.69
2018-06-03T23:55:17.453Z,83.67
2018-06-03T23:57:46.528Z,84.07
